KLM203 UKBB-UMMS
Flight info
| Callsign | KLM203 |
|---|---|
| Flight time | N/A |
| Altitude | 34000 |
| Route | TUVOG M856 LOVIK M996 DAKWI DAKWI2C |
| Aircraft | B738/M-SDE2E3FGHIRWXY/LB1 |
Departure
| Time | 2025-10-09 16:58 |
|---|---|
| Airport | Boryspil International Airport (UKBB) |
Arrival
| Time | N/A |
|---|---|
| Airport | Minsk National Airport (UMMS) |
| Time | Latitude | Longitude | Altitude | Speed | Heading |
|---|---|---|---|---|---|
| 2025-10-09 16:25 | 50.33942 | 30.88721 | 408 ft | 0 kts | 92° |
| 2025-10-09 16:45 | 50.33943 | 30.88705 | 408 ft | 2 kts | 95° |
| 2025-10-09 16:45 | 50.33944 | 30.88659 | 408 ft | 2 kts | 93° |
| 2025-10-09 16:46 | 50.33945 | 30.88637 | 407 ft | 0 kts | 92° |
| 2025-10-09 16:47 | 50.33885 | 30.88625 | 407 ft | 4 kts | 211° |
| 2025-10-09 16:48 | 50.33799 | 30.88554 | 407 ft | 11 kts | 193° |
| 2025-10-09 16:48 | 50.33704 | 30.88553 | 407 ft | 14 kts | 152° |
| 2025-10-09 16:49 | 50.33618 | 30.88817 | 410 ft | 12 kts | 93° |
| 2025-10-09 16:49 | 50.33606 | 30.89173 | 416 ft | 19 kts | 92° |
| 2025-10-09 16:50 | 50.33602 | 30.89572 | 417 ft | 12 kts | 70° |
| 2025-10-09 16:50 | 50.33632 | 30.90021 | 414 ft | 13 kts | 27° |
| 2025-10-09 16:51 | 50.33928 | 30.90054 | 411 ft | 29 kts | 359° |
| 2025-10-09 16:51 | 50.34408 | 30.90088 | 411 ft | 35 kts | 3° |
| 2025-10-09 16:52 | 50.34642 | 30.90104 | 409 ft | 27 kts | 3° |
| 2025-10-09 16:52 | 50.34916 | 30.90218 | 407 ft | 15 kts | 30° |
| 2025-10-09 16:53 | 50.35195 | 30.90259 | 405 ft | 25 kts | 5° |
| 2025-10-09 16:53 | 50.35543 | 30.90284 | 404 ft | 24 kts | 3° |
| 2025-10-09 16:54 | 50.35878 | 30.90307 | 404 ft | 23 kts | 3° |
| 2025-10-09 16:54 | 50.36074 | 30.90395 | 404 ft | 7 kts | 63° |
| 2025-10-09 16:55 | 50.36042 | 30.90614 | 401 ft | 10 kts | 128° |
| 2025-10-09 16:55 | 50.35746 | 30.90626 | 401 ft | 63 kts | 182° |
| 2025-10-09 16:56 | 50.33935 | 30.90484 | 412 ft | 186 kts | 184° |
| 2025-10-09 16:56 | 50.32610 | 30.90374 | 912 ft | 194 kts | 183° |
| 2025-10-09 16:57 | 50.29677 | 30.90180 | 2168 ft | 228 kts | 189° |
| 2025-10-09 16:57 | 50.26300 | 30.89606 | 3066 ft | 266 kts | 183° |
| 2025-10-09 16:58 | 50.20421 | 30.89386 | 5046 ft | 293 kts | 181° |
| 2025-10-09 16:58 | 50.16327 | 30.89537 | 6644 ft | 295 kts | 165° |
| 2025-10-09 16:59 | 50.13029 | 30.92846 | 8401 ft | 285 kts | 126° |
| 2025-10-09 16:59 | 50.11491 | 30.98371 | 9922 ft | 283 kts | 98° |
| 2025-10-09 17:00 | 50.11342 | 31.01476 | 10207 ft | 301 kts | 85° |
| 2025-10-09 17:00 | 50.13081 | 31.07790 | 10551 ft | 344 kts | 48° |
| 2025-10-09 17:01 | 50.17523 | 31.11394 | 10866 ft | 385 kts | 8° |
| 2025-10-09 17:01 | 50.22914 | 31.10386 | 11982 ft | 397 kts | 347° |
| 2025-10-09 17:02 | 50.28226 | 31.08517 | 12595 ft | 391 kts | 351° |
| 2025-10-09 17:02 | 50.36470 | 31.06913 | 14176 ft | 405 kts | 356° |
| 2025-10-09 17:03 | 50.42159 | 31.06160 | 15182 ft | 414 kts | 356° |
| 2025-10-09 17:03 | 50.47693 | 31.05365 | 16107 ft | 422 kts | 355° |
| 2025-10-09 17:04 | 50.50621 | 31.04866 | 16706 ft | 423 kts | 355° |
| 2025-10-09 17:04 | 50.56452 | 31.03884 | 17914 ft | 424 kts | 355° |
| 2025-10-09 17:05 | 50.62368 | 31.02927 | 19017 ft | 426 kts | 355° |
| 2025-10-09 17:05 | 50.68245 | 31.02015 | 20305 ft | 423 kts | 356° |
| 2025-10-09 17:06 | 50.74044 | 31.01094 | 21590 ft | 420 kts | 355° |
| 2025-10-09 17:06 | 50.82849 | 30.99675 | 22926 ft | 427 kts | 355° |
| 2025-10-09 17:07 | 50.88782 | 30.98756 | 23800 ft | 430 kts | 356° |
| 2025-10-09 17:07 | 50.94727 | 30.97835 | 24739 ft | 432 kts | 358° |